createdAt,value
2023-07-31T00:00:55.604Z,1.48
2023-07-31T00:03:42.905Z,1.42
2023-07-31T00:06:30.307Z,1.48
2023-07-31T00:09:17.677Z,1.58
2023-07-31T00:12:05.694Z,1.48
2023-07-31T00:14:53.234Z,1.45
2023-07-31T00:17:40.608Z,1.35
2023-07-31T00:20:27.920Z,1.58
2023-07-31T00:23:15.237Z,1.50
2023-07-31T00:26:02.578Z,1.45
2023-07-31T00:28:49.777Z,1.58
2023-07-31T00:31:37.083Z,1.40
2023-07-31T00:34:24.380Z,1.58
2023-07-31T00:37:11.959Z,1.60
2023-07-31T00:39:59.347Z,1.45
2023-07-31T00:42:46.718Z,1.40
2023-07-31T00:45:36.154Z,1.67
2023-07-31T00:48:24.165Z,1.50
2023-07-31T00:51:12.200Z,1.48
2023-07-31T00:53:59.656Z,1.55
2023-07-31T00:56:49.599Z,1.75
2023-07-31T00:59:37.080Z,1.88
2023-07-31T01:02:24.594Z,1.90
2023-07-31T01:05:13.282Z,1.80
2023-07-31T01:08:13.607Z,1.75
2023-07-31T01:11:11.260Z,1.40
2023-07-31T01:13:59.264Z,1.83
2023-07-31T01:16:46.805Z,1.83
2023-07-31T01:19:34.189Z,1.60
2023-07-31T01:22:27.367Z,1.73
2023-07-31T01:25:23.998Z,1.70
2023-07-31T01:28:19.785Z,1.65
2023-07-31T01:31:10.106Z,1.85
2023-07-31T01:34:00.781Z,1.40
2023-07-31T01:36:48.228Z,1.60
2023-07-31T01:39:35.657Z,1.50
2023-07-31T01:42:22.913Z,1.73
2023-07-31T01:45:10.674Z,1.50
2023-07-31T01:47:58.053Z,1.83
2023-07-31T01:50:45.266Z,1.88
2023-07-31T01:53:32.802Z,1.60
2023-07-31T01:56:20.122Z,1.75
2023-07-31T01:59:07.415Z,1.35
2023-07-31T02:01:55.215Z,1.77
2023-07-31T02:04:42.752Z,1.80
2023-07-31T02:07:30.202Z,1.88
2023-07-31T02:10:17.607Z,1.75
2023-07-31T02:13:05.119Z,1.83
2023-07-31T02:15:52.901Z,1.55
2023-07-31T02:18:40.265Z,1.88
2023-07-31T02:21:27.640Z,1.77
2023-07-31T02:24:15.100Z,1.65
2023-07-31T02:27:02.427Z,1.70
2023-07-31T02:29:49.613Z,2.00
2023-07-31T02:32:36.830Z,2.10
2023-07-31T02:35:24.253Z,2.28
2023-07-31T02:38:11.557Z,1.80
2023-07-31T02:40:58.918Z,1.80
2023-07-31T02:43:46.273Z,1.90
2023-07-31T02:46:33.518Z,1.70
2023-07-31T02:49:20.658Z,2.00
2023-07-31T02:52:08.113Z,1.65
2023-07-31T02:54:55.549Z,1.52
2023-07-31T02:57:42.856Z,1.85
2023-07-31T03:00:30.179Z,2.15
2023-07-31T03:03:17.591Z,2.17
2023-07-31T03:06:04.778Z,1.85
2023-07-31T03:08:52.044Z,1.90
2023-07-31T03:11:39.274Z,1.80
2023-07-31T03:14:27.991Z,1.77
2023-07-31T03:17:15.869Z,1.80
2023-07-31T03:20:03.221Z,1.77
2023-07-31T03:22:50.942Z,1.75
2023-07-31T03:25:38.369Z,1.60
2023-07-31T03:28:26.135Z,1.92
2023-07-31T03:31:14.718Z,1.95
2023-07-31T03:34:01.965Z,1.90
2023-07-31T03:36:49.253Z,1.80
2023-07-31T03:39:36.861Z,1.80
2023-07-31T03:42:24.117Z,1.80
2023-07-31T03:45:11.941Z,1.90
2023-07-31T03:47:59.416Z,2.28
2023-07-31T03:50:47.028Z,1.83
2023-07-31T03:53:34.301Z,1.90
2023-07-31T03:56:21.509Z,1.80
2023-07-31T03:59:08.903Z,1.75
2023-07-31T04:01:56.214Z,2.20
2023-07-31T04:04:43.660Z,2.00
2023-07-31T04:07:30.927Z,2.05
2023-07-31T04:10:18.519Z,1.80
2023-07-31T04:13:05.868Z,1.98
2023-07-31T04:15:53.286Z,1.60
2023-07-31T04:18:40.441Z,2.10
2023-07-31T04:21:27.813Z,1.90
2023-07-31T04:24:15.367Z,1.88
2023-07-31T04:27:02.758Z,2.03
2023-07-31T04:29:50.023Z,2.15
2023-07-31T04:32:37.334Z,1.90
2023-07-31T04:35:24.660Z,1.80
2023-07-31T04:38:11.927Z,1.80
2023-07-31T04:40:59.579Z,1.90
2023-07-31T04:43:46.859Z,1.75
2023-07-31T04:46:34.338Z,2.20
2023-07-31T04:49:21.721Z,1.90
2023-07-31T04:52:09.009Z,2.13
2023-07-31T04:54:56.401Z,1.88
2023-07-31T04:57:43.795Z,1.95
2023-07-31T05:00:31.381Z,1.65
2023-07-31T05:03:19.060Z,1.88
2023-07-31T05:06:06.580Z,2.00
2023-07-31T05:08:53.767Z,1.80
2023-07-31T05:11:41.771Z,1.83
2023-07-31T05:14:29.207Z,1.90
2023-07-31T05:17:16.382Z,1.90
2023-07-31T05:20:03.846Z,1.80
2023-07-31T05:22:52.037Z,1.70
2023-07-31T05:25:39.535Z,1.65
2023-07-31T05:28:26.882Z,1.60
2023-07-31T05:31:14.138Z,2.08
2023-07-31T05:34:01.298Z,1.60
2023-07-31T05:36:48.656Z,2.20
2023-07-31T05:39:35.946Z,1.98
2023-07-31T05:42:23.491Z,1.60
2023-07-31T05:45:11.052Z,1.85
2023-07-31T05:47:58.300Z,1.67
2023-07-31T05:50:45.685Z,1.70
2023-07-31T05:53:32.951Z,2.00
2023-07-31T05:56:20.087Z,1.50
2023-07-31T05:59:07.457Z,1.60
2023-07-31T06:01:54.741Z,2.03
2023-07-31T06:04:42.561Z,1.80
2023-07-31T06:07:29.921Z,1.80
2023-07-31T06:10:17.228Z,1.90
2023-07-31T06:13:05.370Z,1.90
2023-07-31T06:15:53.524Z,1.77
2023-07-31T06:18:40.888Z,1.63
2023-07-31T06:21:28.296Z,1.70
2023-07-31T06:24:20.036Z,1.85
2023-07-31T06:27:07.557Z,1.77
2023-07-31T06:29:54.776Z,1.83
2023-07-31T06:32:42.106Z,1.55
2023-07-31T06:35:29.430Z,1.88
2023-07-31T06:38:16.616Z,1.70
2023-07-31T06:41:03.942Z,1.77
2023-07-31T06:43:51.165Z,1.92
2023-07-31T06:46:39.187Z,1.80
2023-07-31T06:49:26.548Z,1.75
2023-07-31T06:52:14.085Z,2.05
2023-07-31T06:55:19.038Z,1.80
2023-07-31T06:58:06.665Z,1.85
2023-07-31T07:00:53.946Z,1.65
2023-07-31T07:03:41.248Z,2.42
2023-07-31T07:06:28.417Z,2.15
2023-07-31T07:09:15.840Z,2.00
2023-07-31T07:12:03.392Z,2.08
2023-07-31T07:14:50.629Z,1.90
2023-07-31T07:17:38.040Z,2.05
2023-07-31T07:20:25.514Z,2.08
2023-07-31T07:23:12.969Z,2.05
2023-07-31T07:26:00.867Z,1.92
2023-07-31T07:28:48.171Z,1.80
2023-07-31T07:31:39.282Z,2.28
2023-07-31T07:34:29.427Z,2.00
2023-07-31T07:37:17.402Z,2.03
2023-07-31T07:40:05.231Z,1.75
2023-07-31T07:42:52.468Z,2.58
2023-07-31T07:45:39.862Z,1.63
2023-07-31T07:48:27.118Z,1.80
2023-07-31T07:51:14.588Z,2.13
2023-07-31T07:54:01.972Z,2.10
2023-07-31T07:56:49.190Z,2.00
2023-07-31T07:59:36.611Z,2.10
2023-07-31T08:02:23.823Z,2.17
2023-07-31T08:05:11.119Z,1.88
2023-07-31T08:07:58.310Z,2.10
2023-07-31T08:10:45.643Z,2.08
2023-07-31T08:13:32.974Z,1.75
2023-07-31T08:16:20.610Z,2.00
2023-07-31T08:19:08.050Z,2.20
2023-07-31T08:21:58.048Z,2.40
2023-07-31T08:24:45.718Z,1.95
2023-07-31T08:27:33.065Z,1.95
2023-07-31T08:30:22.391Z,2.10
2023-07-31T08:33:09.893Z,1.88
2023-07-31T08:35:57.081Z,2.30
2023-07-31T08:38:46.517Z,2.30
2023-07-31T08:41:39.418Z,2.15
2023-07-31T08:44:26.751Z,1.95
2023-07-31T08:47:15.102Z,2.20
2023-07-31T08:50:03.261Z,1.92
2023-07-31T08:52:52.715Z,1.98
2023-07-31T08:55:40.208Z,2.20
2023-07-31T08:58:34.068Z,2.28
2023-07-31T09:01:22.721Z,2.13
2023-07-31T09:04:13.649Z,2.20
2023-07-31T09:07:05.610Z,2.10
2023-07-31T09:09:52.925Z,1.75
2023-07-31T09:12:40.692Z,2.15
2023-07-31T09:15:37.924Z,2.22
2023-07-31T09:18:27.224Z,2.38
2023-07-31T09:21:14.477Z,2.10
2023-07-31T09:24:01.797Z,1.92
2023-07-31T09:26:55.080Z,1.73
2023-07-31T09:29:42.448Z,2.30
2023-07-31T09:32:32.360Z,1.88
2023-07-31T09:35:29.805Z,1.77
2023-07-31T09:38:17.886Z,2.03
2023-07-31T09:41:06.497Z,2.15
2023-07-31T09:43:56.733Z,1.83
2023-07-31T09:46:44.645Z,2.10
2023-07-31T09:49:32.058Z,1.95
2023-07-31T09:52:19.307Z,2.03
2023-07-31T09:55:06.918Z,2.40
2023-07-31T09:57:58.421Z,2.60
2023-07-31T10:00:46.109Z,2.03
2023-07-31T10:03:34.377Z,2.30
2023-07-31T10:06:21.993Z,2.35
2023-07-31T10:09:12.724Z,2.40
2023-07-31T10:14:55.627Z,2.20
2023-07-31T10:17:43.614Z,2.17
2023-07-31T10:20:31.964Z,2.00
2023-07-31T10:23:20.274Z,2.20
2023-07-31T10:26:09.122Z,2.58
2023-07-31T10:28:56.956Z,2.00
2023-07-31T10:31:45.766Z,2.30
2023-07-31T10:34:35.285Z,2.40
2023-07-31T10:37:50.432Z,2.50
2023-07-31T10:40:38.620Z,2.33
2023-07-31T10:43:27.997Z,2.42
2023-07-31T10:46:16.018Z,2.50
2023-07-31T10:49:03.843Z,2.47
2023-07-31T10:51:51.158Z,2.22
2023-07-31T10:54:39.832Z,1.95
2023-07-31T10:57:27.809Z,2.20
2023-07-31T11:00:29.896Z,2.10
2023-07-31T11:03:19.101Z,2.50
2023-07-31T11:06:06.799Z,2.55
2023-07-31T11:08:54.112Z,2.50
2023-07-31T11:11:41.937Z,2.22
2023-07-31T11:14:29.207Z,1.73
2023-07-31T11:17:16.448Z,1.80
2023-07-31T11:20:03.852Z,2.08
2023-07-31T11:22:51.321Z,2.05
2023-07-31T11:25:41.440Z,2.60
2023-07-31T11:28:34.227Z,2.50
2023-07-31T11:31:21.908Z,2.30
2023-07-31T11:34:09.329Z,2.10
2023-07-31T11:36:57.073Z,2.22
2023-07-31T11:39:44.311Z,2.47
2023-07-31T11:42:31.633Z,2.38
2023-07-31T11:45:19.203Z,2.40
2023-07-31T11:48:06.537Z,2.20
2023-07-31T11:50:55.593Z,2.25
2023-07-31T11:53:50.825Z,3.70
2023-07-31T11:56:38.757Z,2.75
2023-07-31T11:59:26.366Z,2.30
2023-07-31T12:02:13.821Z,2.28
2023-07-31T12:05:01.287Z,2.60
2023-07-31T12:07:52.907Z,2.55
2023-07-31T12:10:42.095Z,3.08
2023-07-31T12:13:29.743Z,2.70
2023-07-31T12:16:17.091Z,2.40
2023-07-31T12:19:04.522Z,2.45
2023-07-31T12:21:51.776Z,2.40
2023-07-31T12:24:41.175Z,2.28
2023-07-31T12:27:34.894Z,3.38
2023-07-31T12:30:37.587Z,2.70
2023-07-31T12:33:24.851Z,2.47
2023-07-31T12:36:21.101Z,3.10
2023-07-31T12:39:08.348Z,2.50
2023-07-31T12:41:55.580Z,2.30
2023-07-31T12:44:42.770Z,2.60
2023-07-31T12:47:31.289Z,2.58
2023-07-31T12:50:18.560Z,2.60
2023-07-31T12:53:07.151Z,2.60
2023-07-31T12:55:54.484Z,2.50
2023-07-31T12:58:41.707Z,2.60
2023-07-31T13:01:29.266Z,2.97
2023-07-31T13:04:17.137Z,2.22
2023-07-31T13:07:04.716Z,2.95
2023-07-31T13:09:52.174Z,2.70
2023-07-31T13:12:39.572Z,3.15
2023-07-31T13:15:26.861Z,2.13
2023-07-31T13:18:14.207Z,2.58
2023-07-31T13:21:01.465Z,2.13
2023-07-31T13:23:48.872Z,2.50
2023-07-31T13:26:37.027Z,2.50
2023-07-31T13:29:25.719Z,2.75
2023-07-31T13:32:13.134Z,2.40
2023-07-31T13:35:01.669Z,2.55
2023-07-31T13:37:48.874Z,2.28
2023-07-31T13:40:36.154Z,2.38
2023-07-31T13:43:23.326Z,2.60
2023-07-31T13:46:12.121Z,2.45
2023-07-31T13:49:00.779Z,2.92
2023-07-31T13:51:48.012Z,2.20
2023-07-31T13:54:35.367Z,2.47
2023-07-31T13:57:22.646Z,2.30
2023-07-31T14:00:10.771Z,2.45
2023-07-31T14:02:58.396Z,2.47
2023-07-31T14:05:45.760Z,2.33
2023-07-31T14:08:32.955Z,2.58
2023-07-31T14:11:20.328Z,2.60
2023-07-31T14:14:07.756Z,2.13
2023-07-31T14:16:55.128Z,2.50
2023-07-31T14:19:43.504Z,2.28
2023-07-31T14:22:31.448Z,2.55
2023-07-31T14:25:18.732Z,2.38
2023-07-31T14:28:06.051Z,2.75
2023-07-31T14:30:54.421Z,2.28
2023-07-31T14:33:41.916Z,2.33
2023-07-31T14:36:29.284Z,2.30
2023-07-31T14:39:16.519Z,2.38
2023-07-31T14:42:03.890Z,2.40
2023-07-31T14:44:51.463Z,2.33
2023-07-31T14:47:39.607Z,3.00
2023-07-31T14:50:30.606Z,2.80
2023-07-31T14:53:17.899Z,2.35
2023-07-31T14:56:05.481Z,2.30
2023-07-31T14:58:52.723Z,2.30
2023-07-31T15:01:40.520Z,2.50
2023-07-31T15:04:28.086Z,2.20
2023-07-31T15:07:16.197Z,2.20
2023-07-31T15:10:04.388Z,2.25
2023-07-31T15:12:51.787Z,2.40
2023-07-31T15:15:39.054Z,2.65
2023-07-31T15:18:26.958Z,2.30
2023-07-31T15:21:14.479Z,2.17
2023-07-31T15:24:02.041Z,2.72
2023-07-31T15:26:49.243Z,2.53
2023-07-31T15:29:38.146Z,2.40
2023-07-31T15:32:25.643Z,2.00
2023-07-31T15:35:12.999Z,2.33
2023-07-31T15:38:00.402Z,2.10
2023-07-31T15:40:49.123Z,2.55
2023-07-31T15:43:36.398Z,2.58
2023-07-31T15:46:23.675Z,2.10
2023-07-31T15:49:11.711Z,2.10
2023-07-31T15:51:59.322Z,2.58
2023-07-31T15:54:46.712Z,2.30
2023-07-31T15:57:34.045Z,2.17
2023-07-31T16:00:21.495Z,2.40
2023-07-31T16:03:09.999Z,2.38
2023-07-31T16:05:57.560Z,2.10
2023-07-31T16:08:45.379Z,2.25
2023-07-31T16:11:32.721Z,2.08
2023-07-31T16:14:20.074Z,2.00
2023-07-31T16:17:07.321Z,2.10
2023-07-31T16:19:54.612Z,2.28
2023-07-31T16:22:43.174Z,1.80
2023-07-31T16:25:30.484Z,2.17
2023-07-31T16:28:17.754Z,2.20
2023-07-31T16:31:05.192Z,2.20
2023-07-31T16:33:53.208Z,2.20
2023-07-31T16:36:40.761Z,2.40
2023-07-31T16:39:28.323Z,3.83
2023-07-31T16:42:15.972Z,4.72
2023-07-31T16:45:03.600Z,2.60
2023-07-31T16:47:50.879Z,2.50
2023-07-31T16:50:38.579Z,2.47
2023-07-31T16:53:25.947Z,1.98
2023-07-31T16:56:13.262Z,2.53
2023-07-31T16:59:00.544Z,2.13
2023-07-31T17:01:49.050Z,2.75
2023-07-31T17:04:37.148Z,2.47
2023-07-31T17:07:24.399Z,2.50
2023-07-31T17:10:11.621Z,2.40
2023-07-31T17:12:59.642Z,2.15
2023-07-31T17:15:46.857Z,2.17
2023-07-31T17:18:34.216Z,2.60
2023-07-31T17:21:21.843Z,2.03
2023-07-31T17:24:09.073Z,2.13
2023-07-31T17:26:56.471Z,2.17
2023-07-31T17:29:43.754Z,2.45
2023-07-31T17:32:31.128Z,2.70
2023-07-31T17:35:18.583Z,2.40
2023-07-31T17:38:06.795Z,2.72
2023-07-31T17:40:54.142Z,2.60
2023-07-31T17:43:41.347Z,2.50
2023-07-31T17:46:28.693Z,2.42
2023-07-31T17:49:16.174Z,2.38
2023-07-31T17:52:04.284Z,2.85
2023-07-31T17:54:56.443Z,2.90
2023-07-31T17:57:43.742Z,2.33
2023-07-31T18:00:32.249Z,2.70
2023-07-31T18:03:19.755Z,2.67
2023-07-31T18:06:07.374Z,2.15
2023-07-31T18:08:54.642Z,2.38
2023-07-31T18:11:41.858Z,2.80
2023-07-31T18:14:29.422Z,3.05
2023-07-31T18:17:17.204Z,2.80
2023-07-31T18:20:06.974Z,2.78
2023-07-31T18:22:54.194Z,3.42
2023-07-31T18:25:42.376Z,3.30
2023-07-31T18:28:30.246Z,3.40
2023-07-31T18:31:17.597Z,3.08
2023-07-31T18:34:04.937Z,3.20
2023-07-31T18:36:52.169Z,3.28
2023-07-31T18:39:39.567Z,3.70
2023-07-31T18:42:26.874Z,2.97
2023-07-31T18:45:14.861Z,3.22
2023-07-31T18:48:02.281Z,3.28
2023-07-31T18:50:51.897Z,4.00
2023-07-31T18:53:39.113Z,4.05
2023-07-31T18:56:26.296Z,5.20
2023-07-31T18:59:13.576Z,4.28
2023-07-31T19:02:00.839Z,4.13
2023-07-31T19:04:48.115Z,4.38
2023-07-31T19:07:35.275Z,4.30
2023-07-31T19:10:22.635Z,4.13
2023-07-31T19:13:10.143Z,4.53
2023-07-31T19:15:57.589Z,4.32
2023-07-31T19:18:45.171Z,4.65
2023-07-31T19:21:32.469Z,4.90
2023-07-31T19:24:21.271Z,4.93
2023-07-31T19:27:08.688Z,4.50
2023-07-31T19:29:55.922Z,5.13
2023-07-31T19:32:43.167Z,5.03
2023-07-31T19:35:30.367Z,4.55
2023-07-31T19:38:17.590Z,4.57
2023-07-31T19:41:05.249Z,4.28
2023-07-31T19:43:52.482Z,4.65
2023-07-31T19:46:40.813Z,4.50
2023-07-31T19:49:31.273Z,4.75
2023-07-31T19:52:18.582Z,4.40
2023-07-31T19:55:06.712Z,4.68
2023-07-31T19:57:54.104Z,4.50
2023-07-31T20:00:41.328Z,4.95
2023-07-31T20:03:28.588Z,5.00
2023-07-31T20:06:15.872Z,5.10
2023-07-31T20:09:05.453Z,4.75
2023-07-31T20:11:53.327Z,4.30
2023-07-31T20:14:40.591Z,4.50
2023-07-31T20:17:29.162Z,4.43
2023-07-31T20:20:16.939Z,4.88
2023-07-31T20:23:05.671Z,5.35
2023-07-31T20:25:53.405Z,5.32
2023-07-31T20:28:40.770Z,5.80
2023-07-31T20:31:28.174Z,4.90
2023-07-31T20:34:15.746Z,5.00
2023-07-31T20:37:03.025Z,5.25
2023-07-31T20:39:50.287Z,5.35
2023-07-31T20:42:38.514Z,4.88
2023-07-31T20:45:31.584Z,5.47
2023-07-31T20:48:19.433Z,5.63
2023-07-31T20:51:06.627Z,5.43
2023-07-31T20:53:54.066Z,5.15
2023-07-31T20:56:41.949Z,5.57
2023-07-31T20:59:29.772Z,5.75
2023-07-31T21:02:17.160Z,5.10
2023-07-31T21:05:04.847Z,4.97
2023-07-31T21:07:52.174Z,5.43
2023-07-31T21:10:40.217Z,5.35
2023-07-31T21:13:27.705Z,4.78
2023-07-31T21:16:14.922Z,5.22
2023-07-31T21:19:02.217Z,4.97
2023-07-31T21:21:49.544Z,4.60
2023-07-31T21:24:36.886Z,4.45
2023-07-31T21:27:27.132Z,5.25
2023-07-31T21:30:14.293Z,5.07
2023-07-31T21:33:01.621Z,5.68
2023-07-31T21:35:48.837Z,5.15
2023-07-31T21:38:36.205Z,5.20
2023-07-31T21:41:23.606Z,4.85
2023-07-31T21:44:10.816Z,5.38
2023-07-31T21:46:58.325Z,5.20
2023-07-31T21:49:45.621Z,5.50
2023-07-31T21:52:32.966Z,5.03
2023-07-31T21:55:20.461Z,5.60
2023-07-31T21:58:07.821Z,5.50
2023-07-31T22:00:55.022Z,5.75
2023-07-31T22:03:42.287Z,5.18
2023-07-31T22:06:29.571Z,5.20
2023-07-31T22:09:16.838Z,5.00
2023-07-31T22:12:04.783Z,5.03
2023-07-31T22:14:52.052Z,4.72
2023-07-31T22:17:39.629Z,5.13
2023-07-31T22:20:26.938Z,4.45
2023-07-31T22:23:14.978Z,5.13
2023-07-31T22:26:03.744Z,5.03
2023-07-31T22:28:51.039Z,4.47
2023-07-31T22:31:38.409Z,4.90
2023-07-31T22:34:25.596Z,5.15
2023-07-31T22:37:12.750Z,4.45
2023-07-31T22:39:59.948Z,4.20
2023-07-31T22:42:47.252Z,4.38
2023-07-31T22:45:34.480Z,4.30
2023-07-31T22:48:21.840Z,4.70
2023-07-31T22:51:09.243Z,4.97
2023-07-31T22:53:56.547Z,5.28
2023-07-31T22:56:43.925Z,4.55
2023-07-31T22:59:31.164Z,5.20
2023-07-31T23:02:18.368Z,4.95
2023-07-31T23:05:06.003Z,5.30
2023-07-31T23:07:53.635Z,5.00
2023-07-31T23:10:40.768Z,4.68
2023-07-31T23:13:28.001Z,5.03
2023-07-31T23:16:15.770Z,5.40
2023-07-31T23:19:03.037Z,5.00
2023-07-31T23:21:50.621Z,5.28
2023-07-31T23:24:37.723Z,4.50
2023-07-31T23:27:24.971Z,4.20
2023-07-31T23:30:12.477Z,4.88
2023-07-31T23:33:00.438Z,4.72
2023-07-31T23:35:48.424Z,4.40
2023-07-31T23:38:35.737Z,4.32
2023-07-31T23:41:23.039Z,4.97
2023-07-31T23:44:10.309Z,4.13
2023-07-31T23:46:57.605Z,4.53
2023-07-31T23:49:44.763Z,5.43
2023-07-31T23:52:33.357Z,4.68
2023-07-31T23:55:20.772Z,4.00
2023-07-31T23:58:08.395Z,4.43
